createdAt,value
2019-04-05T00:00:39.179Z,26.97
2019-04-05T00:02:14.285Z,25.33
2019-04-05T00:03:48.986Z,25.47
2019-04-05T00:05:23.689Z,26.20
2019-04-05T00:06:58.384Z,26.97
2019-04-05T00:08:33.044Z,26.10
2019-04-05T00:10:08.460Z,27.63
2019-04-05T00:11:43.125Z,26.53
2019-04-05T00:13:17.765Z,26.17
2019-04-05T00:14:52.462Z,25.77
2019-04-05T00:16:27.258Z,25.57
2019-04-05T00:18:01.893Z,25.67
2019-04-05T00:19:36.550Z,25.70
2019-04-05T00:21:11.299Z,26.03
2019-04-05T00:22:45.963Z,26.13
2019-04-05T00:24:20.644Z,25.67
2019-04-05T00:25:55.299Z,26.63
2019-04-05T00:27:29.973Z,24.43
2019-04-05T00:29:05.722Z,25.53
2019-04-05T00:30:40.398Z,26.63
2019-04-05T00:32:15.082Z,26.67
2019-04-05T00:33:49.709Z,26.00
2019-04-05T00:35:24.378Z,25.30
2019-04-05T00:36:59.024Z,25.77
2019-04-05T00:38:33.680Z,25.53
2019-04-05T00:40:09.715Z,26.57
2019-04-05T00:41:44.376Z,25.40
2019-04-05T00:43:19.017Z,25.90
2019-04-05T00:44:53.752Z,26.13
2019-04-05T00:46:28.446Z,25.13
2019-04-05T00:48:03.194Z,25.77
2019-04-05T00:49:38.928Z,25.97
2019-04-05T00:51:14.829Z,26.43
2019-04-05T00:52:49.554Z,27.13
2019-04-05T00:54:24.314Z,27.63
2019-04-05T00:55:59.037Z,26.47
2019-04-05T00:57:33.725Z,24.57
2019-04-05T00:59:08.368Z,27.47
2019-04-05T01:00:43.010Z,27.90
2019-04-05T01:02:17.784Z,26.20
2019-04-05T01:03:52.400Z,26.80
2019-04-05T01:05:27.138Z,26.80
2019-04-05T01:07:01.933Z,26.70
2019-04-05T01:08:36.664Z,24.83
2019-04-05T01:10:11.892Z,26.40
2019-04-05T01:11:46.617Z,26.23
2019-04-05T01:13:22.219Z,26.93
2019-04-05T01:14:57.045Z,26.67
2019-04-05T01:16:31.799Z,28.57
2019-04-05T01:18:06.569Z,27.60
2019-04-05T01:19:41.883Z,26.23
2019-04-05T01:21:19.966Z,26.27
2019-04-05T01:22:55.197Z,25.83
2019-04-05T01:24:30.045Z,26.80
2019-04-05T01:26:05.391Z,28.07
2019-04-05T01:27:41.240Z,26.63
2019-04-05T01:46:19.174Z,25.33
2019-04-05T01:47:53.912Z,26.77
2019-04-05T01:49:28.551Z,26.07
2019-04-05T01:51:03.234Z,25.47
2019-04-05T01:52:38.048Z,26.90
2019-04-05T01:54:12.774Z,25.47
2019-04-05T01:55:47.443Z,25.80
2019-04-05T01:57:22.131Z,26.40
2019-04-05T01:58:56.811Z,25.10
2019-04-05T02:00:31.502Z,26.13
2019-04-05T02:02:06.362Z,27.53
2019-04-05T02:03:41.054Z,27.33
2019-04-05T02:05:16.137Z,26.60
2019-04-05T02:06:50.848Z,26.53
2019-04-05T02:08:25.822Z,26.87
2019-04-05T02:10:00.538Z,27.00
2019-04-05T02:11:36.354Z,27.33
2019-04-05T02:13:11.096Z,27.60
2019-04-05T02:14:46.883Z,27.80
2019-04-05T02:16:21.669Z,26.47
2019-04-05T02:17:56.933Z,26.60
2019-04-05T02:19:31.658Z,27.30
2019-04-05T02:21:07.372Z,28.00
2019-04-05T02:22:42.195Z,25.67
2019-04-05T02:24:16.896Z,27.37
2019-04-05T02:25:51.609Z,28.00
2019-04-05T02:27:26.235Z,26.60
2019-04-05T02:29:00.953Z,26.17
2019-04-05T02:30:35.821Z,26.93
2019-04-05T02:32:10.549Z,27.33
2019-04-05T02:33:45.222Z,27.50
2019-04-05T02:35:19.869Z,26.77
2019-04-05T02:36:54.510Z,26.67
2019-04-05T02:38:29.220Z,27.87
2019-04-05T02:40:04.089Z,25.73
2019-04-05T02:41:39.703Z,27.07
2019-04-05T02:43:15.906Z,25.67
2019-04-05T02:44:51.653Z,27.13
2019-04-05T02:46:26.991Z,24.83
2019-04-05T02:48:04.622Z,25.07
2019-04-05T02:49:39.657Z,26.77
2019-04-05T02:51:14.969Z,24.67
2019-04-05T02:52:50.681Z,24.97
2019-04-05T02:54:25.681Z,26.00
2019-04-05T02:56:03.048Z,25.37
2019-04-05T02:57:36.942Z,24.63
2019-04-05T02:59:12.495Z,26.47
2019-04-05T03:00:47.506Z,25.40
2019-04-05T03:02:22.328Z,24.80
2019-04-05T03:03:57.053Z,24.33
2019-04-05T03:05:32.504Z,24.70
2019-04-05T03:07:07.445Z,24.50
2019-04-05T03:08:43.348Z,24.77
2019-04-05T03:10:45.714Z,25.67
2019-04-05T03:12:20.592Z,22.87
2019-04-05T03:13:57.357Z,24.37
2019-04-05T03:15:32.076Z,24.37
2019-04-05T03:17:07.404Z,23.70
2019-04-05T03:18:45.235Z,24.30
2019-04-05T03:20:20.103Z,24.73
2019-04-05T03:21:59.957Z,24.20
2019-04-05T03:23:36.740Z,24.53
2019-04-05T03:25:11.771Z,24.90
2019-04-05T03:26:50.825Z,25.73
2019-04-05T03:28:26.037Z,25.20
2019-04-05T03:30:00.983Z,24.83
2019-04-05T03:31:35.728Z,25.83
2019-04-05T03:33:10.351Z,24.40
2019-04-05T03:34:45.091Z,23.70
2019-04-05T03:36:20.094Z,24.27
2019-04-05T03:37:54.830Z,25.00
2019-04-05T03:39:29.481Z,25.00
2019-04-05T03:41:05.515Z,24.57
2019-04-05T03:42:40.290Z,24.80
2019-04-05T03:44:14.965Z,25.73
2019-04-05T03:45:49.983Z,24.20
2019-04-05T03:47:24.833Z,25.80
2019-04-05T03:48:59.539Z,23.77
2019-04-05T03:50:34.238Z,25.00
2019-04-05T03:52:08.975Z,24.57
2019-04-05T03:53:43.694Z,24.43
2019-04-05T03:55:18.526Z,25.40
2019-04-05T03:56:53.458Z,24.70
2019-04-05T03:58:28.076Z,25.27
2019-04-05T04:00:02.826Z,26.17
2019-04-05T04:01:38.282Z,24.40
2019-04-05T04:03:13.182Z,24.60
2019-04-05T04:04:47.843Z,24.73
2019-04-05T04:06:22.625Z,25.13
2019-04-05T04:07:57.404Z,23.80
2019-04-05T04:09:32.209Z,23.70
2019-04-05T04:11:07.838Z,25.63
2019-04-05T04:12:42.576Z,24.43
2019-04-05T04:14:17.298Z,24.93
2019-04-05T04:15:53.227Z,24.87
2019-04-05T04:17:27.848Z,23.97
2019-04-05T04:19:02.846Z,23.97
2019-04-05T04:20:40.823Z,25.00
2019-04-05T04:22:22.999Z,23.60
2019-04-05T04:23:57.696Z,25.10
2019-04-05T04:25:32.545Z,23.43
2019-04-05T04:27:07.287Z,25.77
2019-04-05T04:28:44.950Z,24.20
2019-04-05T04:30:19.680Z,24.40
2019-04-05T04:31:54.620Z,24.33
2019-04-05T04:33:29.535Z,24.67
2019-04-05T04:35:04.939Z,23.33
2019-04-05T04:36:39.625Z,24.43
2019-04-05T04:38:14.464Z,23.83
2019-04-05T04:39:50.746Z,22.43
2019-04-05T04:41:25.523Z,23.67
2019-04-05T04:43:01.325Z,23.70
2019-04-05T04:44:37.762Z,23.30
2019-04-05T04:46:13.104Z,23.00
2019-04-05T04:47:47.923Z,23.33
2019-04-05T04:49:22.852Z,24.40
2019-04-05T04:50:57.743Z,22.83
2019-04-05T04:52:33.045Z,23.37
2019-04-05T04:54:07.796Z,24.23
2019-04-05T04:55:42.719Z,24.07
2019-04-05T04:57:17.639Z,23.20
2019-04-05T04:58:52.300Z,23.63
2019-04-05T05:00:27.544Z,23.67
2019-04-05T05:02:02.254Z,23.30
2019-04-05T05:03:37.063Z,23.93
2019-04-05T05:05:12.602Z,22.83
2019-04-05T05:06:47.413Z,22.87
2019-04-05T05:08:22.149Z,22.60
2019-04-05T05:09:57.084Z,23.67
2019-04-05T05:11:32.025Z,23.63
2019-04-05T05:13:06.830Z,24.03
2019-04-05T05:14:42.127Z,22.57
2019-04-05T05:16:17.232Z,21.70
2019-04-05T05:17:58.461Z,22.23
2019-04-05T05:19:28.756Z,23.60
2019-04-05T05:21:03.419Z,22.73
2019-04-05T05:22:38.370Z,21.00
2019-04-05T05:24:13.207Z,22.33
2019-04-05T05:25:47.922Z,21.00
2019-04-05T05:27:22.631Z,22.00
2019-04-05T05:28:57.390Z,21.57
2019-04-05T05:30:32.075Z,22.17
2019-04-05T05:32:09.569Z,21.97
2019-04-05T05:33:43.228Z,19.50
2019-04-05T05:35:17.894Z,19.97
2019-04-05T05:36:52.743Z,20.23
2019-04-05T05:38:27.576Z,21.60
2019-04-05T05:40:02.363Z,21.20
2019-04-05T05:41:37.107Z,20.60
2019-04-05T05:43:11.862Z,20.87
2019-04-05T05:44:46.578Z,20.37
2019-04-05T05:46:21.241Z,21.97
2019-04-05T05:47:55.964Z,19.90
2019-04-05T05:49:30.677Z,22.20
2019-04-05T05:51:05.398Z,21.00
2019-04-05T05:52:40.226Z,21.63
2019-04-05T05:54:14.957Z,21.20
2019-04-05T05:55:49.771Z,21.70
2019-04-05T05:57:24.497Z,21.73
2019-04-05T05:58:59.645Z,20.27
2019-04-05T06:00:35.271Z,20.03
2019-04-05T06:02:09.927Z,21.30
2019-04-05T06:03:44.575Z,21.27
2019-04-05T06:05:19.453Z,22.93
2019-04-05T06:06:54.171Z,22.63
2019-04-05T06:08:29.988Z,22.27
2019-04-05T06:10:05.349Z,23.60
2019-04-05T06:11:40.019Z,23.07
2019-04-05T06:13:14.710Z,23.93
2019-04-05T06:14:49.460Z,21.43
2019-04-05T06:16:24.133Z,21.87
2019-04-05T06:18:04.514Z,22.70
2019-04-05T06:19:35.446Z,21.77
2019-04-05T06:21:10.104Z,23.33
2019-04-05T06:22:47.503Z,23.23
2019-04-05T06:24:21.165Z,24.33
2019-04-05T06:25:55.813Z,22.57
2019-04-05T06:27:30.458Z,22.97
2019-04-05T06:29:05.185Z,22.37
2019-04-05T06:30:39.856Z,21.90
2019-04-05T06:32:14.518Z,23.80
2019-04-05T06:33:49.165Z,24.07
2019-04-05T06:35:23.888Z,24.83
2019-04-05T06:36:58.534Z,24.73
2019-04-05T06:38:33.156Z,25.17
2019-04-05T06:40:07.895Z,22.67
2019-04-05T06:41:42.615Z,22.70
2019-04-05T06:43:17.334Z,22.80
2019-04-05T06:44:52.055Z,24.10
2019-04-05T06:46:26.700Z,22.80
2019-04-05T06:48:01.338Z,23.13
2019-04-05T06:49:36.963Z,23.70
2019-04-05T06:51:11.632Z,21.93
2019-04-05T06:52:47.280Z,23.13
2019-04-05T06:54:21.935Z,24.00
2019-04-05T06:55:59.579Z,24.57
2019-04-05T06:57:32.917Z,23.00
2019-04-05T06:59:07.557Z,24.27
2019-04-05T07:00:56.105Z,24.40
2019-04-05T07:02:18.772Z,23.70
2019-04-05T07:03:55.225Z,23.80
2019-04-05T07:05:30.102Z,23.77
2019-04-05T07:07:04.864Z,22.57
2019-04-05T07:08:39.537Z,24.40
2019-04-05T07:10:14.311Z,23.70
2019-04-05T07:11:49.109Z,22.20
2019-04-05T07:13:23.784Z,23.73
2019-04-05T07:14:58.424Z,23.40
2019-04-05T07:16:33.487Z,23.60
2019-04-05T07:18:08.211Z,23.37
2019-04-05T07:19:42.864Z,24.03
2019-04-05T07:21:20.349Z,23.57
2019-04-05T07:22:54.989Z,24.80
2019-04-05T07:24:29.661Z,23.90
2019-04-05T07:26:04.339Z,24.53
2019-04-05T07:27:39.023Z,24.73
2019-04-05T07:29:13.664Z,25.07
2019-04-05T07:30:48.311Z,26.10
2019-04-05T07:32:23.001Z,25.67
2019-04-05T07:33:57.655Z,24.80
2019-04-05T07:35:33.963Z,24.20
2019-04-05T07:37:08.892Z,24.40
2019-04-05T07:38:43.600Z,22.93
2019-04-05T07:40:19.179Z,26.63
2019-04-05T07:41:53.831Z,27.00
2019-04-05T07:43:28.493Z,25.97
2019-04-05T07:45:03.294Z,26.43
2019-04-05T07:46:39.008Z,24.93
2019-04-05T07:48:13.642Z,25.50
2019-04-05T07:49:48.296Z,25.53
2019-04-05T07:51:23.012Z,24.77
2019-04-05T07:52:57.744Z,26.50
2019-04-05T07:54:32.453Z,24.03
2019-04-05T07:56:07.104Z,25.87
2019-04-05T07:57:42.790Z,26.87
2019-04-05T07:59:17.446Z,24.97
2019-04-05T08:00:53.732Z,25.23
2019-04-05T08:02:28.457Z,26.00
2019-04-05T08:04:03.194Z,25.90
2019-04-05T08:05:38.186Z,25.70
2019-04-05T08:07:13.752Z,25.57
2019-04-05T08:09:09.299Z,26.70
2019-04-05T08:10:44.386Z,27.93
2019-04-05T08:12:19.401Z,25.17
2019-04-05T08:13:55.481Z,26.20
2019-04-05T08:15:30.402Z,27.00
2019-04-05T08:17:05.354Z,27.23
2019-04-05T08:18:40.026Z,25.63
2019-04-05T08:20:14.759Z,27.50
2019-04-05T08:21:49.448Z,25.53
2019-04-05T08:23:24.101Z,27.00
2019-04-05T08:24:58.822Z,27.70
2019-04-05T08:26:33.773Z,25.80
2019-04-05T08:28:08.427Z,26.43
2019-04-05T08:29:43.119Z,26.77
2019-04-05T08:31:17.781Z,26.70
2019-04-05T08:32:52.510Z,27.93
2019-04-05T08:34:27.146Z,26.27
2019-04-05T08:36:01.804Z,27.30
2019-04-05T08:37:36.527Z,26.30
2019-04-05T08:39:11.258Z,26.10
2019-04-05T08:40:46.000Z,25.67
2019-04-05T08:42:20.697Z,27.87
2019-04-05T08:43:55.371Z,26.20
2019-04-05T08:45:30.098Z,26.87
2019-04-05T08:47:04.913Z,28.03
2019-04-05T08:48:39.564Z,25.93
2019-04-05T08:50:14.475Z,26.33
2019-04-05T08:51:49.188Z,28.80
2019-04-05T08:53:23.821Z,26.03
2019-04-05T08:54:58.482Z,26.60
2019-04-05T08:56:33.166Z,24.77
2019-04-05T08:58:07.817Z,25.57
2019-04-05T08:59:42.485Z,25.60
2019-04-05T09:01:17.309Z,25.03
2019-04-05T09:02:52.228Z,25.63
2019-04-05T09:04:26.918Z,26.53
2019-04-05T09:06:01.680Z,25.87
2019-04-05T09:07:36.339Z,26.27
2019-04-05T09:09:10.989Z,27.67
2019-04-05T09:10:45.665Z,25.17
2019-04-05T09:12:20.311Z,26.77
2019-04-05T09:13:55.024Z,26.93
2019-04-05T09:15:29.662Z,26.93
2019-04-05T09:17:04.401Z,27.10
2019-04-05T09:18:39.032Z,27.07
2019-04-05T09:20:13.829Z,26.47
2019-04-05T09:21:48.599Z,26.47
2019-04-05T09:23:23.295Z,26.63
2019-04-05T09:24:57.978Z,27.13
2019-04-05T09:26:32.653Z,27.37
2019-04-05T09:28:07.303Z,26.20
2019-04-05T09:29:42.125Z,25.27
2019-04-05T09:31:16.791Z,26.13
2019-04-05T09:32:51.582Z,26.60
2019-04-05T09:34:26.228Z,24.83
2019-04-05T09:36:00.905Z,24.83
2019-04-05T09:37:35.583Z,26.07
2019-04-05T09:39:15.263Z,26.07
2019-04-05T09:40:47.884Z,25.17
2019-04-05T09:42:22.599Z,25.07
2019-04-05T09:43:57.308Z,24.17
2019-04-05T09:45:31.956Z,26.07
2019-04-05T09:47:06.671Z,24.90
2019-04-05T09:48:41.318Z,26.13
2019-04-05T09:50:16.219Z,24.63
2019-04-05T09:51:51.055Z,24.00
2019-04-05T09:53:25.818Z,24.03
2019-04-05T09:55:00.481Z,23.67
2019-04-05T09:56:35.155Z,23.23
2019-04-05T09:58:10.359Z,23.93
2019-04-05T09:59:45.232Z,23.67
2019-04-05T10:01:19.983Z,24.83
2019-04-05T10:02:54.747Z,24.37
2019-04-05T10:04:31.199Z,23.20
2019-04-05T10:06:05.875Z,24.27
2019-04-05T10:07:53.815Z,23.73
2019-04-05T10:09:16.989Z,23.77
2019-04-05T10:10:51.683Z,22.90
2019-04-05T10:12:27.728Z,24.23
2019-04-05T10:14:02.388Z,24.57
2019-04-05T10:15:37.024Z,24.10
2019-04-05T10:17:12.122Z,23.30
2019-04-05T10:18:46.790Z,23.30
2019-04-05T10:20:21.542Z,24.80
2019-04-05T10:21:56.178Z,23.03
2019-04-05T10:23:30.865Z,23.60
2019-04-05T10:25:06.004Z,23.20
2019-04-05T10:26:40.668Z,21.80
2019-04-05T10:28:15.404Z,23.10
2019-04-05T10:29:50.045Z,22.13
2019-04-05T10:31:24.844Z,24.93
2019-04-05T10:32:59.530Z,23.23
2019-04-05T10:34:34.183Z,22.73
2019-04-05T10:36:08.824Z,22.87
2019-04-05T10:37:43.483Z,22.77
2019-04-05T10:39:18.166Z,22.60
2019-04-05T10:40:55.554Z,24.03
2019-04-05T10:42:33.848Z,23.20
2019-04-05T10:44:11.753Z,22.93
2019-04-05T10:45:46.909Z,23.40
2019-04-05T10:47:21.790Z,22.53
2019-04-05T10:48:56.528Z,22.33
2019-04-05T10:50:32.189Z,23.00
2019-04-05T10:52:06.835Z,21.87
2019-04-05T10:53:41.516Z,23.07
2019-04-05T10:55:16.265Z,22.40
2019-04-05T10:56:50.913Z,23.10
2019-04-05T10:58:25.662Z,22.27
2019-04-05T11:00:00.317Z,22.70
2019-04-05T11:01:35.034Z,21.37
2019-04-05T11:03:09.724Z,23.47
2019-04-05T11:04:44.477Z,25.30
2019-04-05T11:06:19.129Z,25.10
2019-04-05T11:07:53.777Z,26.00
2019-04-05T11:09:28.450Z,23.53
2019-04-05T11:11:03.126Z,22.00
2019-04-05T11:12:37.900Z,23.50
2019-04-05T11:14:13.922Z,22.83
2019-04-05T11:15:49.067Z,22.77
2019-04-05T11:17:23.731Z,23.80
2019-04-05T11:19:01.887Z,22.93
2019-04-05T11:20:34.736Z,23.40
2019-04-05T11:22:09.364Z,22.77
2019-04-05T11:23:44.022Z,23.10
2019-04-05T11:25:20.667Z,23.90
2019-04-05T11:26:55.261Z,23.00
2019-04-05T11:28:31.194Z,23.37
2019-04-05T11:30:06.650Z,25.27
2019-04-05T11:31:41.333Z,23.83
2019-04-05T11:33:19.369Z,24.47
2019-04-05T11:34:52.683Z,25.10
2019-04-05T11:36:27.506Z,23.47
2019-04-05T11:38:02.228Z,23.83
2019-04-05T11:39:36.950Z,24.73
2019-04-05T11:41:11.722Z,23.63
2019-04-05T11:42:46.881Z,23.57
2019-04-05T11:44:23.060Z,23.17
2019-04-05T11:45:57.894Z,24.10
2019-04-05T11:47:32.976Z,24.60
2019-04-05T11:49:07.696Z,24.83
2019-04-05T11:50:42.414Z,23.80
2019-04-05T11:52:17.080Z,23.50
2019-04-05T11:53:51.772Z,23.00
2019-04-05T11:55:26.436Z,22.90
2019-04-05T11:57:01.193Z,22.27
2019-04-05T11:58:35.839Z,23.07
2019-04-05T12:00:15.004Z,22.73
2019-04-05T12:01:56.317Z,23.63
2019-04-05T12:03:31.018Z,23.50
2019-04-05T12:05:06.265Z,23.50
2019-04-05T12:06:40.902Z,23.40
2019-04-05T12:08:15.552Z,23.47
2019-04-05T12:09:50.299Z,23.33
2019-04-05T12:11:24.951Z,22.87
2019-04-05T12:12:59.611Z,23.27
2019-04-05T12:14:36.377Z,24.33
2019-04-05T12:16:11.244Z,23.07
2019-04-05T12:17:45.968Z,23.67
2019-04-05T12:19:20.605Z,23.37
2019-04-05T12:21:00.001Z,23.03
2019-04-05T12:22:32.638Z,22.77
2019-04-05T12:24:08.243Z,24.23
2019-04-05T12:25:43.086Z,23.70
2019-04-05T12:27:20.607Z,22.90
2019-04-05T12:28:54.184Z,23.00
2019-04-05T12:30:28.917Z,24.67
2019-04-05T12:32:03.958Z,22.80
2019-04-05T12:33:38.588Z,23.67
2019-04-05T12:35:13.315Z,23.00
2019-04-05T12:36:47.962Z,22.70
2019-04-05T12:38:33.023Z,23.53
2019-04-05T12:40:10.244Z,23.40
2019-04-05T12:41:45.614Z,28.43
2019-04-05T12:43:20.267Z,52.63
2019-04-05T12:44:55.790Z,24.07
2019-04-05T12:46:30.516Z,23.50
2019-04-05T12:48:05.278Z,23.53
2019-04-05T12:49:39.917Z,22.80
2019-04-05T12:51:15.566Z,22.77
2019-04-05T12:52:50.871Z,22.53
2019-04-05T12:54:25.510Z,23.27
2019-04-05T12:56:00.151Z,23.63
2019-04-05T12:57:34.864Z,22.43
2019-04-05T12:59:09.531Z,21.77
2019-04-05T13:00:44.261Z,22.87
2019-04-05T13:02:32.746Z,22.63
2019-04-05T13:03:55.302Z,23.03
2019-04-05T13:05:30.939Z,23.20
2019-04-05T13:07:05.718Z,24.77
2019-04-05T13:08:40.400Z,23.43
2019-04-05T13:10:15.050Z,23.13
2019-04-05T13:11:49.778Z,22.57
2019-04-05T13:13:26.655Z,22.60
2019-04-05T13:15:12.347Z,22.47
2019-04-05T13:16:39.755Z,23.47
2019-04-05T13:18:14.478Z,23.60
2019-04-05T13:19:49.122Z,22.43
2019-04-05T13:21:27.363Z,22.60
2019-04-05T13:23:02.473Z,22.07
2019-04-05T13:24:39.567Z,23.10
2019-04-05T13:26:12.929Z,23.23
2019-04-05T13:27:47.679Z,21.87
2019-04-05T13:29:22.350Z,23.00
2019-04-05T13:30:57.030Z,23.10
2019-04-05T13:32:31.674Z,23.73
2019-04-05T13:34:06.621Z,24.10
2019-04-05T13:35:41.339Z,22.43
2019-04-05T13:37:20.446Z,22.70
2019-04-05T13:38:54.889Z,22.10
2019-04-05T13:40:29.619Z,23.17
2019-04-05T13:42:04.963Z,21.93
2019-04-05T13:43:39.627Z,22.37
2019-04-05T13:45:15.547Z,22.00
2019-04-05T13:46:50.222Z,21.93
2019-04-05T13:48:24.892Z,21.60
2019-04-05T13:49:59.540Z,23.70
2019-04-05T13:51:34.203Z,22.57
2019-04-05T13:53:11.131Z,22.03
2019-04-05T13:54:45.260Z,21.43
2019-04-05T13:56:19.908Z,22.03
2019-04-05T13:57:54.847Z,22.53
2019-04-05T13:59:29.634Z,21.67
2019-04-05T14:01:04.481Z,21.07
2019-04-05T14:02:39.263Z,21.43
2019-04-05T14:04:16.864Z,21.47
2019-04-05T14:05:54.061Z,21.50
2019-04-05T14:07:26.697Z,21.57
2019-04-05T14:09:01.677Z,21.33
2019-04-05T14:10:37.660Z,22.20
2019-04-05T14:12:12.340Z,22.70
2019-04-05T14:13:47.081Z,22.13
2019-04-05T14:15:21.875Z,21.03
2019-04-05T14:16:56.539Z,21.73
2019-04-05T14:18:31.190Z,22.07
2019-04-05T14:20:09.281Z,22.27
2019-04-05T14:21:47.633Z,22.07
2019-04-05T14:23:23.048Z,22.20
2019-04-05T14:24:56.887Z,22.00
2019-04-05T14:26:32.443Z,21.13
2019-04-05T14:28:07.099Z,22.47
2019-04-05T14:29:41.779Z,22.60
2019-04-05T14:31:16.485Z,20.70
2019-04-05T14:32:55.283Z,22.33
2019-04-05T14:34:27.495Z,22.83
2019-04-05T14:36:02.157Z,22.03
2019-04-05T14:37:36.824Z,21.47
2019-04-05T14:39:11.746Z,21.83
2019-04-05T14:40:46.599Z,22.00
2019-04-05T14:42:22.293Z,21.77
2019-04-05T14:43:56.957Z,22.47
2019-04-05T14:45:31.634Z,21.57
2019-04-05T14:47:06.324Z,21.93
2019-04-05T14:48:40.995Z,22.77
2019-04-05T14:50:17.331Z,23.23
2019-04-05T14:51:54.885Z,22.33
2019-04-05T14:53:32.002Z,21.67
2019-04-05T14:55:05.012Z,21.50
2019-04-05T14:56:39.666Z,23.03
2019-04-05T14:58:14.319Z,22.33
2019-04-05T14:59:48.985Z,21.87
2019-04-05T15:01:23.947Z,22.13
2019-04-05T15:02:58.594Z,21.13
2019-04-05T15:04:33.322Z,22.00
2019-04-05T15:06:08.031Z,22.17
2019-04-05T15:07:42.702Z,23.33
2019-04-05T15:09:17.455Z,23.40
2019-04-05T15:10:52.118Z,23.23
2019-04-05T15:12:29.148Z,22.77
2019-04-05T15:14:03.226Z,22.43
2019-04-05T15:15:37.886Z,21.80
2019-04-05T15:17:12.624Z,22.40
2019-04-05T15:18:47.421Z,22.63
2019-04-05T15:20:23.052Z,22.80
2019-04-05T15:22:05.544Z,23.47
2019-04-05T15:23:34.012Z,22.47
2019-04-05T15:25:08.999Z,22.83
2019-04-05T15:26:43.726Z,22.40
2019-04-05T15:28:18.445Z,24.17
2019-04-05T15:29:55.350Z,21.63
2019-04-05T15:31:29.540Z,23.27
2019-04-05T15:33:05.614Z,22.93
2019-04-05T15:34:40.276Z,22.37
2019-04-05T15:36:15.891Z,22.63
2019-04-05T15:37:50.569Z,23.93
2019-04-05T15:39:25.223Z,22.77
2019-04-05T15:40:59.890Z,23.27
2019-04-05T15:42:34.628Z,23.93
2019-04-05T15:44:09.303Z,23.50
2019-04-05T15:45:44.172Z,22.73
2019-04-05T15:47:23.149Z,22.27
2019-04-05T15:48:55.877Z,24.47
2019-04-05T15:50:30.534Z,23.50
2019-04-05T15:52:17.787Z,22.00
2019-04-05T15:53:41.816Z,22.70
2019-04-05T15:55:16.534Z,23.13
2019-04-05T15:56:51.303Z,23.40
2019-04-05T15:58:26.398Z,24.43
2019-04-05T16:00:03.800Z,23.17
2019-04-05T16:01:38.455Z,23.87
2019-04-05T16:03:15.449Z,22.53
2019-04-05T16:04:51.238Z,24.47
2019-04-05T16:06:25.969Z,24.67
2019-04-05T16:08:00.698Z,24.20
2019-04-05T16:09:35.336Z,23.67
2019-04-05T16:11:09.974Z,22.43
2019-04-05T16:12:44.700Z,22.30
2019-04-05T16:14:19.360Z,24.70
2019-04-05T16:15:54.040Z,23.27
2019-04-05T16:17:28.788Z,24.53
2019-04-05T16:19:03.484Z,23.43
2019-04-05T16:20:38.459Z,24.93
2019-04-05T16:22:13.125Z,23.23
2019-04-05T16:23:47.773Z,23.93
2019-04-05T16:25:23.449Z,23.87
2019-04-05T16:26:58.370Z,23.90
2019-04-05T16:28:33.236Z,24.07
2019-04-05T16:30:08.470Z,25.17
2019-04-05T16:31:43.137Z,25.10
2019-04-05T16:33:17.799Z,24.03
2019-04-05T16:34:52.461Z,23.40
2019-04-05T16:36:30.796Z,24.40
2019-04-05T16:38:04.148Z,23.10
2019-04-05T16:39:38.843Z,23.97
2019-04-05T16:41:13.530Z,23.90
2019-04-05T16:43:01.497Z,23.90
2019-04-05T16:44:24.560Z,24.93
2019-04-05T16:45:59.555Z,25.17
2019-04-05T16:47:35.236Z,25.73
2019-04-05T16:49:09.876Z,25.23
2019-04-05T16:50:45.466Z,25.20
2019-04-05T16:52:20.118Z,24.27
2019-04-05T16:54:03.923Z,26.13
2019-04-05T16:55:38.652Z,25.33
2019-04-05T16:57:13.289Z,26.37
2019-04-05T16:58:47.977Z,25.40
2019-04-05T17:00:22.997Z,24.70
2019-04-05T17:01:57.684Z,25.23
2019-04-05T17:03:32.329Z,24.80
2019-04-05T17:05:07.441Z,24.70
2019-04-05T17:06:42.217Z,24.50
2019-04-05T17:08:16.868Z,23.53
2019-04-05T17:09:51.799Z,26.10
2019-04-05T17:11:26.466Z,25.40
2019-04-05T17:13:01.284Z,27.30
2019-04-05T17:14:35.923Z,25.67
2019-04-05T17:16:10.574Z,24.53
2019-04-05T17:17:45.512Z,25.50
2019-04-05T17:19:20.198Z,24.93
2019-04-05T17:20:54.845Z,26.67
2019-04-05T17:22:29.701Z,27.77
2019-04-05T17:24:04.566Z,25.83
2019-04-05T17:25:39.619Z,26.23
2019-04-05T17:27:14.570Z,25.47
2019-04-05T17:28:49.219Z,25.63
2019-04-05T17:30:23.951Z,26.80
2019-04-05T17:31:58.667Z,25.33
2019-04-05T17:33:33.314Z,25.53
2019-04-05T17:35:07.991Z,26.23
2019-04-05T17:36:42.644Z,26.73
2019-04-05T17:38:17.328Z,25.77
2019-04-05T17:39:51.990Z,24.83
2019-04-05T17:41:26.763Z,24.77
2019-04-05T17:43:01.416Z,26.50
2019-04-05T17:44:36.061Z,26.00
2019-04-05T17:46:10.805Z,27.30
2019-04-05T17:47:45.466Z,26.07
2019-04-05T17:49:20.199Z,26.43
2019-04-05T17:50:54.983Z,24.60
2019-04-05T17:52:29.732Z,27.27
2019-04-05T17:54:04.544Z,26.43
2019-04-05T17:55:39.548Z,25.70
2019-04-05T17:57:14.682Z,26.90
2019-04-05T17:58:50.247Z,26.63
2019-04-05T18:00:25.013Z,25.97
2019-04-05T18:01:59.801Z,26.27
2019-04-05T18:03:34.632Z,28.23
2019-04-05T18:05:09.516Z,28.20
2019-04-05T18:06:44.165Z,26.07
2019-04-05T18:08:18.803Z,27.63
2019-04-05T18:09:53.754Z,28.07
2019-04-05T18:11:28.384Z,27.43
2019-04-05T18:13:05.626Z,27.93
2019-04-05T18:14:40.272Z,26.93
2019-04-05T18:16:14.938Z,27.40
2019-04-05T18:17:49.587Z,29.03
2019-04-05T18:19:24.262Z,27.20
2019-04-05T18:20:58.970Z,28.73
2019-04-05T18:22:33.631Z,28.83
2019-04-05T18:24:08.282Z,26.93
2019-04-05T18:25:42.957Z,27.93
2019-04-05T18:27:17.660Z,28.77
2019-04-05T18:28:52.323Z,29.50
2019-04-05T18:30:26.969Z,30.43
2019-04-05T18:32:01.711Z,30.10
2019-04-05T18:33:37.328Z,29.93
2019-04-05T18:35:12.191Z,29.13
2019-04-05T18:36:46.978Z,28.43
2019-04-05T18:38:21.790Z,29.60
2019-04-05T18:39:57.714Z,28.10
2019-04-05T18:41:32.415Z,29.60
2019-04-05T18:43:08.299Z,27.70
2019-04-05T18:44:42.937Z,27.40
2019-04-05T18:46:17.579Z,27.57
2019-04-05T18:47:52.269Z,28.30
2019-04-05T18:49:26.922Z,28.03
2019-04-05T18:51:01.569Z,28.07
2019-04-05T18:52:36.227Z,27.93
2019-04-05T18:54:10.871Z,29.30
2019-04-05T18:55:45.506Z,28.33
2019-04-05T18:57:21.127Z,27.47
2019-04-05T18:58:55.768Z,28.37
2019-04-05T19:00:31.369Z,28.63
2019-04-05T19:02:06.117Z,27.70
2019-04-05T19:03:40.739Z,28.43
2019-04-05T19:05:15.561Z,27.27
2019-04-05T19:06:50.199Z,28.07
2019-04-05T19:08:24.822Z,28.60
2019-04-05T19:09:59.470Z,28.67
2019-04-05T19:11:35.304Z,29.57
2019-04-05T19:13:09.948Z,27.40
2019-04-05T19:14:44.578Z,28.93
2019-04-05T19:16:19.232Z,27.90
2019-04-05T19:17:53.886Z,28.93
2019-04-05T19:19:29.661Z,29.50
2019-04-05T19:21:04.326Z,30.50
2019-04-05T19:22:38.974Z,31.20
2019-04-05T19:24:13.599Z,30.63
2019-04-05T19:25:48.229Z,32.30
2019-04-05T19:27:22.877Z,33.50
2019-04-05T19:28:57.526Z,31.20
2019-04-05T19:49:50.010Z,32.47
2019-04-05T19:51:24.688Z,33.37
2019-04-05T19:53:00.692Z,33.10
2019-04-05T19:54:35.374Z,32.90
2019-04-05T19:56:10.010Z,32.50
2019-04-05T19:57:44.791Z,33.20
2019-04-05T19:59:19.455Z,33.37
2019-04-05T20:00:54.168Z,32.60
2019-04-05T20:02:28.815Z,31.27
2019-04-05T20:04:03.518Z,32.17
2019-04-05T20:05:38.204Z,31.50
2019-04-05T20:07:12.873Z,31.87
2019-04-05T20:08:47.523Z,31.97
2019-04-05T20:10:22.203Z,32.20
2019-04-05T20:11:56.904Z,33.60
2019-04-05T20:13:31.546Z,33.03
2019-04-05T20:15:07.040Z,31.60
2019-04-05T20:16:41.687Z,35.20
2019-04-05T20:18:16.399Z,30.87
2019-04-05T20:19:51.060Z,32.77
2019-04-05T20:21:25.774Z,34.17
2019-04-05T20:23:00.422Z,32.93
2019-04-05T20:24:35.063Z,32.90
2019-04-05T20:26:13.564Z,31.70
2019-04-05T20:27:48.211Z,33.33
2019-04-05T20:29:22.910Z,32.67
2019-04-05T20:30:57.751Z,33.63
2019-04-05T20:32:32.387Z,33.13
2019-04-05T20:34:07.127Z,33.47
2019-04-05T20:35:41.841Z,33.43
2019-04-05T20:37:16.632Z,33.60
2019-04-05T20:38:51.279Z,32.33
2019-04-05T20:40:25.955Z,32.43
2019-04-05T20:42:00.603Z,31.77
2019-04-05T20:43:35.247Z,32.70
2019-04-05T20:45:10.265Z,32.70
2019-04-05T20:46:44.921Z,32.97
2019-04-05T20:48:19.553Z,32.60
2019-04-05T20:49:54.196Z,32.97
2019-04-05T20:51:28.851Z,32.47
2019-04-05T20:53:03.518Z,32.27
2019-04-05T20:54:38.163Z,31.50
2019-04-05T20:56:13.124Z,30.97
2019-04-05T20:57:47.838Z,31.17
2019-04-05T20:59:22.500Z,32.83
2019-04-05T21:00:59.303Z,30.67